Time;durP1;ratioP1;P1;durP2;ratioP2;P2;SDS_P1;SDS_P2;PMS_P1;PMS_P2;Temp;Humidity;BMP_temperature;BMP_pressure;BME280_temperature;BME280_humidity;BME280_pressure;Samples;Min_cycle;Max_cycle;Signal;HPM_P1;HPM_P2
2023/01/19 00:03:14;;;;;;;4.37;2.05;;;;;;;8.02;70.28;98936.41;18494905;32;20142;-61
2023/01/19 00:13:18;;;;;;;1.15;1.12;;;;;;;7.81;70.91;98916.81;18493909;32;20107;-61
2023/01/19 00:23:23;;;;;;;0.65;0.65;;;;;;;7.62;70.62;98917.06;18499067;32;20104;-61
2023/01/19 00:33:26;;;;;;;0.62;0.62;;;;;;;7.53;70.65;98912.88;18500909;32;20483;-60
2023/01/19 00:43:30;;;;;;;0.47;0.47;;;;;;;7.20;71.34;98935.78;18500852;32;20153;-60
2023/01/19 00:53:34;;;;;;;0.60;0.60;;;;;;;7.16;71.36;98926.31;18500401;32;20106;-60
2023/01/19 01:03:38;;;;;;;0.43;0.43;;;;;;;7.06;71.55;98922.97;18500300;32;20134;-60
2023/01/19 01:13:42;;;;;;;2.12;1.87;;;;;;;7.29;70.74;98914.06;18500844;32;20477;-60
2023/01/19 01:23:47;;;;;;;0.80;0.80;;;;;;;7.01;71.26;98904.84;18500713;32;20085;-61
2023/01/19 01:33:50;;;;;;;0.60;0.60;;;;;;;7.15;70.50;98888.28;18499483;32;20100;-60
2023/01/19 01:43:57;;;;;;;0.70;0.70;;;;;;;6.98;70.67;98894.53;18500425;32;20504;-60
2023/01/19 01:54:06;;;;;;;0.60;0.60;;;;;;;6.93;70.70;98898.94;18498809;32;20093;-60
2023/01/19 02:04:11;;;;;;;0.57;0.57;;;;;;;6.93;70.22;98901.53;18498687;32;20088;-61
2023/01/19 02:14:14;;;;;;;0.60;0.60;;;;;;;6.82;69.78;98919.78;18498293;32;20107;-61
2023/01/19 02:24:19;;;;;;;0.52;0.52;;;;;;;6.78;68.98;98947.47;18498094;32;20146;-61
2023/01/19 02:34:22;;;;;;;0.70;0.70;;;;;;;6.50;69.62;98913.19;18497614;32;20093;-60
2023/01/19 02:44:28;;;;;;;0.50;0.50;;;;;;;6.03;69.91;98912.72;18496655;32;20089;-60
2023/01/19 02:54:45;;;;;;;0.70;0.70;;;;;;;5.94;70.33;98931.75;18496865;32;20092;-60
2023/01/19 03:04:59;;;;;;;0.68;0.68;;;;;;;5.83;70.18;98900.75;18498100;32;20111;-60
2023/01/19 03:15:09;;;;;;;0.70;0.70;;;;;;;5.91;69.80;98911.91;18496441;32;20097;-60
2023/01/19 03:25:14;;;;;;;0.85;0.85;;;;;;;5.71;70.45;98917.22;18496078;32;20093;-61
2023/01/19 03:35:19;;;;;;;0.70;0.70;;;;;;;5.62;70.55;98958.69;18495799;32;20103;-60
2023/01/19 03:45:24;;;;;;;0.47;0.47;;;;;;;5.73;70.39;98956.06;18496723;32;20145;-60
2023/01/19 03:55:27;;;;;;;0.45;0.45;;;;;;;5.38;70.87;98873.41;18493460;32;20106;-61
2023/01/19 04:05:32;;;;;;;0.55;0.55;;;;;;;5.07;71.87;98873.56;18494711;32;20119;-60
2023/01/19 04:15:35;;;;;;;0.60;0.60;;;;;;;5.17;71.32;98902.84;18494015;32;20175;-60
2023/01/19 04:25:40;;;;;;;0.60;0.60;;;;;;;5.11;71.90;98924.41;18494749;32;20146;-60
2023/01/19 04:35:44;;;;;;;0.60;0.60;;;;;;;5.14;71.67;98906.31;18494034;32;20081;-60
2023/01/19 04:45:49;;;;;;;0.60;0.60;;;;;;;5.25;71.59;98901.06;18493426;32;20097;-60
2023/01/19 04:55:55;;;;;;;0.85;0.85;;;;;;;5.46;70.79;98900.97;18491425;32;20117;-60
2023/01/19 05:06:00;;;;;;;0.52;0.52;;;;;;;5.46;71.00;98883.72;18494273;32;20089;-60
2023/01/19 05:16:03;;;;;;;0.50;0.50;;;;;;;5.51;70.69;98878.53;18499311;32;20119;-61
2023/01/19 05:26:08;;;;;;;0.65;0.65;;;;;;;5.79;70.70;98936.16;18499405;32;20111;-60
2023/01/19 05:36:12;;;;;;;6.07;3.62;;;;;;;5.86;70.22;98929.19;18498887;32;20096;-60
2023/01/19 05:46:17;;;;;;;0.60;0.60;;;;;;;6.18;69.75;98943.69;18498537;32;20178;-60
2023/01/19 05:56:20;;;;;;;0.65;0.65;;;;;;;6.31;69.77;98949.66;18497771;32;20115;-60
2023/01/19 06:06:24;;;;;;;0.60;0.60;;;;;;;6.32;69.66;98930.62;18496806;32;20158;-61
2023/01/19 06:16:27;;;;;;;0.52;0.52;;;;;;;6.35;69.84;98914.16;18463377;32;20100;-61
2023/01/19 06:26:32;;;;;;;0.62;0.62;;;;;;;6.27;69.73;98890.94;18463155;32;20097;-59
2023/01/19 06:36:35;;;;;;;0.60;0.60;;;;;;;6.42;69.25;98887.34;18480847;32;20089;-59
2023/01/19 06:46:40;;;;;;;0.70;0.70;;;;;;;6.66;68.33;98890.56;18465074;32;20438;-59
2023/01/19 06:56:43;;;;;;;0.60;0.60;;;;;;;6.77;68.25;98912.06;18432957;32;20097;-59
2023/01/19 07:06:48;;;;;;;0.57;0.57;;;;;;;6.88;68.05;98935.28;18428669;32;20097;-59
2023/01/19 07:16:52;;;;;;;0.57;0.57;;;;;;;6.89;68.17;98920.56;18429752;32;20108;-59
2023/01/19 07:26:57;;;;;;;0.50;0.50;;;;;;;6.97;67.59;98923.06;18430590;32;20092;-59
2023/01/19 07:37:00;;;;;;;0.60;0.60;;;;;;;7.02;67.62;98906.59;18431451;32;20140;-59
2023/01/19 07:47:06;;;;;;;0.65;0.65;;;;;;;7.12;67.47;98951.44;18439665;32;20381;-59
2023/01/19 07:57:09;;;;;;;1.30;1.00;;;;;;;7.07;67.71;98940.28;18496180;32;20097;-59
2023/01/19 08:07:14;;;;;;;0.70;0.70;;;;;;;7.17;67.12;98933.22;18494806;32;20111;-59
2023/01/19 08:17:17;;;;;;;0.50;0.50;;;;;;;7.44;66.99;98944.16;18477251;32;20104;-59
2023/01/19 08:27:22;;;;;;;0.55;0.55;;;;;;;7.53;67.25;98933.66;18493970;32;20085;-59
2023/01/19 08:37:26;;;;;;;0.85;0.70;;;;;;;7.71;67.15;98942.91;18492744;32;20105;-59
2023/01/19 08:47:30;;;;;;;0.57;0.57;;;;;;;7.81;66.93;98928.06;18501978;32;20097;-59
2023/01/19 08:57:34;;;;;;;0.60;0.60;;;;;;;7.89;67.16;98934.00;18500967;32;20797;-59
2023/01/19 09:07:39;;;;;;;0.60;0.60;;;;;;;8.12;66.87;98944.94;18500757;32;20449;-59
2023/01/19 09:17:42;;;;;;;0.60;0.60;;;;;;;8.11;67.30;98935.41;18500385;32;20100;-59
2023/01/19 09:27:47;;;;;;;1.75;1.08;;;;;;;8.11;67.44;98938.00;18500142;32;20142;-59
2023/01/19 09:37:50;;;;;;;0.57;0.57;;;;;;;8.03;67.80;98939.00;18500895;32;20100;-59
2023/01/19 09:47:56;;;;;;;0.60;0.60;;;;;;;8.23;67.38;98942.16;18499349;32;20119;-59
2023/01/19 09:57:59;;;;;;;0.62;0.62;;;;;;;8.26;67.46;98935.16;18498422;32;20709;-59
2023/01/19 10:08:16;;;;;;;0.70;0.70;;;;;;;8.18;67.54;98932.72;18497470;32;20096;-58
2023/01/19 10:18:24;;;;;;;0.70;0.70;;;;;;;8.00;68.40;98923.44;18498709;32;20475;-59
2023/01/19 10:28:28;;;;;;;0.60;0.60;;;;;;;8.12;68.26;98947.56;18498610;32;20106;-59
2023/01/19 10:38:33;;;;;;;0.60;0.60;;;;;;;8.21;67.29;98949.13;18499222;32;20077;-59
2023/01/19 10:48:39;;;;;;;0.75;0.75;;;;;;;7.99;68.10;98947.72;18497734;32;20166;-59
2023/01/19 10:58:42;;;;;;;0.90;0.90;;;;;;;8.02;67.96;98952.00;18497409;32;20096;-59
2023/01/19 11:08:49;;;;;;;0.75;0.75;;;;;;;8.02;67.20;98967.59;18494397;32;20390;-59
2023/01/19 11:18:54;;;;;;;0.60;0.60;;;;;;;7.88;67.54;98965.22;18492903;32;20451;-59
2023/01/19 11:29:01;;;;;;;0.60;0.60;;;;;;;7.71;67.77;98975.84;18495606;32;20088;-59
2023/01/19 11:39:22;;;;;;;0.60;0.60;;;;;;;7.65;67.75;98974.19;18493274;32;80412;-59
2023/01/19 11:49:32;;;;;;;0.50;0.50;;;;;;;7.69;67.34;98980.22;18493777;32;20112;-59
2023/01/19 11:59:35;;;;;;;0.60;0.60;;;;;;;7.49;67.46;98978.69;18477810;32;20101;-59
2023/01/19 12:09:43;;;;;;;0.50;0.50;;;;;;;7.62;67.46;99001.06;18450207;32;20125;-59
2023/01/19 12:19:51;;;;;;;0.57;0.57;;;;;;;7.67;67.61;99002.72;18492443;32;20139;-60
2023/01/19 12:29:58;;;;;;;0.70;0.70;;;;;;;7.86;66.98;99017.19;18491883;32;20107;-59
2023/01/19 12:40:05;;;;;;;1.40;1.30;;;;;;;7.75;67.08;99029.47;18488966;32;20143;-60
2023/01/19 12:50:18;;;;;;;0.50;0.50;;;;;;;7.70;67.56;99031.28;18491941;32;20142;-59
2023/01/19 13:00:35;;;;;;;0.50;0.50;;;;;;;7.89;66.56;99045.75;18491485;32;20107;-59
2023/01/19 13:11:19;;;;;;;0.70;0.70;;;;;;;7.78;67.37;99051.06;18489618;32;20088;-59
2023/01/19 13:21:29;;;;;;;0.70;0.70;;;;;;;8.00;67.23;99071.56;18487431;32;20114;-60
2023/01/19 13:31:34;;;;;;;0.60;0.60;;;;;;;7.81;67.63;99083.94;18495996;32;20122;-59
2023/01/19 13:41:40;;;;;;;0.60;0.60;;;;;;;7.81;67.67;99112.53;18497743;32;20092;-59
2023/01/19 13:51:43;;;;;;;0.62;0.62;;;;;;;8.07;66.99;99137.34;18499642;32;20093;-59
2023/01/19 14:01:49;;;;;;;0.60;0.60;;;;;;;7.70;66.52;99156.81;18499204;32;20128;-59
2023/01/19 14:12:12;;;;;;;0.47;0.47;;;;;;;7.35;67.11;99166.66;18498593;32;20093;-59
2023/01/19 14:22:18;;;;;;;0.52;0.52;;;;;;;7.54;66.75;99176.00;18497026;32;20118;-59
2023/01/19 14:32:22;;;;;;;0.70;0.70;;;;;;;7.42;67.47;99189.97;18496834;32;20088;-60
2023/01/19 14:42:29;;;;;;;0.55;0.55;;;;;;;7.43;67.12;99182.16;18496441;32;20137;-59
2023/01/19 14:52:34;;;;;;;0.70;0.70;;;;;;;7.51;66.92;99163.94;18496216;32;20097;-59
2023/01/19 15:02:39;;;;;;;0.70;0.70;;;;;;;7.13;68.16;99214.44;18495986;32;20093;-59
2023/01/19 15:12:42;;;;;;;10.75;6.22;;;;;;;7.40;67.09;99207.28;18495102;32;20437;-59
2023/01/19 15:22:47;;;;;;;0.90;0.90;;;;;;;7.62;65.09;99224.41;18496026;32;20092;-59
2023/01/19 15:32:50;;;;;;;0.55;0.55;;;;;;;6.58;67.76;99257.97;18494794;32;20097;-58
2023/01/19 15:42:55;;;;;;;0.75;0.75;;;;;;;6.28;68.73;99265.84;18494006;32;20144;-58
2023/01/19 15:52:58;;;;;;;0.55;0.55;;;;;;;6.23;69.96;99267.59;18486462;32;20477;-59
2023/01/19 16:03:03;;;;;;;0.90;0.90;;;;;;;6.77;67.42;99285.56;18494628;32;20096;-59
2023/01/19 16:13:06;;;;;;;1.67;1.58;;;;;;;6.78;67.28;99315.81;18494147;32;20109;-59
2023/01/19 16:23:11;;;;;;;1.12;1.12;;;;;;;6.89;67.03;99336.53;18493115;32;20124;-60
2023/01/19 16:33:17;;;;;;;0.62;0.62;;;;;;;6.74;65.45;99372.91;18493373;32;20132;-59
2023/01/19 16:43:22;;;;;;;0.82;0.82;;;;;;;6.46;66.28;99384.22;18492561;32;20122;-59
2023/01/19 16:53:25;;;;;;;0.62;0.62;;;;;;;6.30;66.17;99400.63;18488139;32;20163;-59
2023/01/19 17:03:30;;;;;;;0.80;0.80;;;;;;;6.27;66.70;99431.75;18491656;32;20108;-58
2023/01/19 17:13:34;;;;;;;1.27;1.20;;;;;;;6.18;67.16;99458.50;18493050;32;20174;-59
2023/01/19 17:23:42;;;;;;;4.30;3.90;;;;;;;6.15;66.71;99455.94;18500819;32;20375;-59
2023/01/19 17:33:47;;;;;;;3.20;2.70;;;;;;;5.96;66.56;99485.22;18490257;32;20156;-59
2023/01/19 17:43:53;;;;;;;9.25;3.53;;;;;;;5.93;66.38;99497.34;18495722;32;20117;-60
2023/01/19 17:53:56;;;;;;;2.25;2.05;;;;;;;5.68;67.34;99502.44;18498750;32;20116;-59
2023/01/19 18:04:01;;;;;;;0.60;0.60;;;;;;;5.83;66.37;99507.66;18496259;32;20479;-59
2023/01/19 18:14:05;;;;;;;1.50;1.50;;;;;;;5.66;66.94;99530.06;18481902;32;20111;-59
2023/01/19 18:24:10;;;;;;;3.67;2.90;;;;;;;5.91;66.58;99520.63;18469054;32;20153;-59
2023/01/19 18:34:13;;;;;;;0.70;0.70;;;;;;;5.96;65.77;99531.84;18494075;32;20100;-59
2023/01/19 18:44:18;;;;;;;0.60;0.60;;;;;;;6.00;64.78;99550.87;18496628;32;20368;-60
2023/01/19 18:54:21;;;;;;;2.10;2.00;;;;;;;5.97;65.43;99546.56;18496430;32;20174;-59
2023/01/19 19:04:26;;;;;;;0.60;0.60;;;;;;;5.97;65.77;99546.56;18492767;32;20649;-59
2023/01/19 19:14:31;;;;;;;1.77;1.70;;;;;;;5.71;65.82;99556.81;18495818;32;20097;-61
2023/01/19 19:24:36;;;;;;;0.77;0.77;;;;;;;5.92;64.44;99574.16;18495325;32;20111;-61
2023/01/19 19:34:48;;;;;;;2.50;2.35;;;;;;;5.92;65.32;99583.66;18491105;32;20449;-61
2023/01/19 19:44:53;;;;;;;0.70;0.70;;;;;;;6.01;65.59;99603.56;18495592;32;20141;-61
2023/01/19 19:54:57;;;;;;;2.72;2.58;;;;;;;6.03;64.81;99605.34;18492416;32;20140;-61
2023/01/19 20:05:02;;;;;;;0.70;0.70;;;;;;;5.92;65.11;99631.16;18486416;32;20100;-61
2023/01/19 20:15:06;;;;;;;1.92;1.50;;;;;;;6.07;64.86;99639.88;18494386;32;20089;-61
2023/01/19 20:25:11;;;;;;;0.70;0.70;;;;;;;6.16;64.58;99652.88;18492458;32;20124;-61
2023/01/19 20:35:15;;;;;;;0.70;0.70;;;;;;;5.84;64.66;99658.75;18490906;32;20103;-59
2023/01/19 20:45:20;;;;;;;0.70;0.70;;;;;;;6.06;63.36;99644.22;18495921;32;20096;-59
2023/01/19 20:55:23;;;;;;;0.70;0.70;;;;;;;5.66;63.90;99660.38;18494372;32;20113;-59
2023/01/19 21:05:28;;;;;;;0.70;0.70;;;;;;;5.61;64.13;99677.62;18494633;32;20093;-60
2023/01/19 21:15:31;;;;;;;0.50;0.50;;;;;;;5.76;63.87;99673.37;18498245;32;20381;-59
2023/01/19 21:25:37;;;;;;;0.60;0.60;;;;;;;5.78;64.50;99667.34;18501335;32;20088;-59
2023/01/19 21:35:40;;;;;;;0.50;0.50;;;;;;;5.77;64.53;99672.50;18500158;32;20103;-59
2023/01/19 21:45:45;;;;;;;1.00;1.00;;;;;;;5.55;63.94;99685.34;18499531;32;20150;-59
2023/01/19 21:55:48;;;;;;;0.57;0.57;;;;;;;5.89;63.64;99693.34;18500342;32;20111;-59
2023/01/19 22:05:54;;;;;;;0.70;0.70;;;;;;;5.55;64.36;99724.19;18499303;32;20439;-59
2023/01/19 22:16:01;;;;;;;0.68;0.65;;;;;;;5.84;63.35;99801.22;18500159;32;20081;-59
2023/01/19 22:26:06;;;;;;;1.05;0.98;;;;;;;5.54;64.78;99753.50;18498360;32;20100;-59
2023/01/19 22:36:11;;;;;;;0.50;0.50;;;;;;;5.32;65.81;99737.81;18497044;32;20192;-59
2023/01/19 22:46:19;;;;;;;0.50;0.50;;;;;;;5.35;65.18;99755.06;18490043;32;20108;-59
2023/01/19 22:56:23;;;;;;;0.80;0.80;;;;;;;5.16;65.57;99746.28;18494417;32;20107;-59
2023/01/19 23:06:30;;;;;;;0.50;0.50;;;;;;;5.10;65.51;99732.44;18492111;32;20206;-59
2023/01/19 23:16:33;;;;;;;0.90;0.90;;;;;;;4.98;66.24;99733.19;18493934;32;20140;-59
2023/01/19 23:26:38;;;;;;;0.70;0.70;;;;;;;5.09;65.93;99712.59;18493776;32;20358;-59
2023/01/19 23:36:41;;;;;;;1.42;1.33;;;;;;;5.17;65.84;99696.25;18494371;32;20095;-59
2023/01/19 23:46:46;;;;;;;1.52;0.82;;;;;;;5.24;65.58;99713.59;18493115;32;20436;-59
2023/01/19 23:56:49;;;;;;;0.57;0.57;;;;;;;5.30;65.66;99728.28;18492537;32;20149;-59
